Terminal Aerodrome Forecast
Issued by NWS Jackson, MS

Home | Current Version | Previous Version | Text Only | Print | Product List | Glossary On
Versions: 1 2 3 4 5 6 7 8 9 10 11 12
000
FTUS44 KJAN 290500
TAFHBG
TAF
KHBG 290520Z 2906/3006 00000KT P6SM FEW250
     FM291000 00000KT 4SM BR SCT008 SCT250
     FM291400 19006KT P6SM SCT250
     FM291800 21011G17KT P6SM SCT030 BKN250
     FM300200 30006KT P6SM BKN035=

USA.gov is the U.S. government's official web portal to all federal, state and local government web resources and services.